sensor_id;sensor_type;location;lat;lon;timestamp;P1;durP1;ratioP1;P2;durP2;ratioP2
56381;SDS011;74506;51.150;4.470;2024-01-30T00:01:05;11.77;;;6.22;;
56381;SDS011;74506;51.150;4.470;2024-01-30T00:03:31;9.55;;;5.25;;
56381;SDS011;74506;51.150;4.470;2024-01-30T00:05:57;11.55;;;5.53;;
56381;SDS011;74506;51.150;4.470;2024-01-30T00:08:22;12.35;;;6.30;;
56381;SDS011;74506;51.150;4.470;2024-01-30T00:10:48;9.23;;;5.70;;
56381;SDS011;74506;51.150;4.470;2024-01-30T00:13:14;10.70;;;6.85;;
56381;SDS011;74506;51.150;4.470;2024-01-30T00:15:43;9.90;;;6.53;;
56381;SDS011;74506;51.150;4.470;2024-01-30T00:18:08;10.57;;;6.20;;
56381;SDS011;74506;51.150;4.470;2024-01-30T00:20:34;9.93;;;6.25;;
56381;SDS011;74506;51.150;4.470;2024-01-30T00:23:00;9.88;;;5.28;;
56381;SDS011;74506;51.150;4.470;2024-01-30T00:25:26;10.20;;;5.60;;
56381;SDS011;74506;51.150;4.470;2024-01-30T00:27:52;9.85;;;4.32;;
56381;SDS011;74506;51.150;4.470;2024-01-30T00:30:19;9.73;;;5.20;;
56381;SDS011;74506;51.150;4.470;2024-01-30T00:32:45;7.65;;;5.03;;
56381;SDS011;74506;51.150;4.470;2024-01-30T00:35:11;5.47;;;4.03;;
56381;SDS011;74506;51.150;4.470;2024-01-30T00:37:36;9.55;;;4.93;;
56381;SDS011;74506;51.150;4.470;2024-01-30T00:40:02;7.50;;;4.00;;
56381;SDS011;74506;51.150;4.470;2024-01-30T00:42:29;8.18;;;5.18;;
56381;SDS011;74506;51.150;4.470;2024-01-30T00:44:55;8.23;;;5.00;;
56381;SDS011;74506;51.150;4.470;2024-01-30T00:47:20;9.30;;;4.80;;
56381;SDS011;74506;51.150;4.470;2024-01-30T00:49:46;6.75;;;4.60;;
56381;SDS011;74506;51.150;4.470;2024-01-30T00:52:12;11.85;;;5.45;;
56381;SDS011;74506;51.150;4.470;2024-01-30T00:54:37;9.13;;;4.43;;
56381;SDS011;74506;51.150;4.470;2024-01-30T00:57:03;8.20;;;4.82;;
56381;SDS011;74506;51.150;4.470;2024-01-30T00:59:29;8.05;;;4.25;;
56381;SDS011;74506;51.150;4.470;2024-01-30T01:01:55;6.13;;;4.10;;
56381;SDS011;74506;51.150;4.470;2024-01-30T01:04:20;7.05;;;4.40;;
56381;SDS011;74506;51.150;4.470;2024-01-30T01:06:47;7.70;;;4.57;;
56381;SDS011;74506;51.150;4.470;2024-01-30T01:09:13;8.15;;;5.25;;
56381;SDS011;74506;51.150;4.470;2024-01-30T01:11:39;8.15;;;4.80;;
56381;SDS011;74506;51.150;4.470;2024-01-30T01:14:05;6.70;;;4.60;;
56381;SDS011;74506;51.150;4.470;2024-01-30T01:16:30;8.82;;;4.47;;
56381;SDS011;74506;51.150;4.470;2024-01-30T01:18:56;6.97;;;4.35;;
56381;SDS011;74506;51.150;4.470;2024-01-30T01:21:22;11.10;;;4.72;;
56381;SDS011;74506;51.150;4.470;2024-01-30T01:23:48;7.78;;;4.40;;
56381;SDS011;74506;51.150;4.470;2024-01-30T01:26:14;9.65;;;5.28;;
56381;SDS011;74506;51.150;4.470;2024-01-30T01:28:42;7.55;;;4.70;;
56381;SDS011;74506;51.150;4.470;2024-01-30T01:31:08;6.10;;;4.13;;
56381;SDS011;74506;51.150;4.470;2024-01-30T01:33:34;8.63;;;5.10;;
56381;SDS011;74506;51.150;4.470;2024-01-30T01:36:01;9.25;;;5.18;;
56381;SDS011;74506;51.150;4.470;2024-01-30T01:38:29;7.97;;;4.38;;
56381;SDS011;74506;51.150;4.470;2024-01-30T01:40:55;9.30;;;4.88;;
56381;SDS011;74506;51.150;4.470;2024-01-30T01:43:21;7.07;;;4.13;;
56381;SDS011;74506;51.150;4.470;2024-01-30T01:45:46;7.47;;;4.63;;
56381;SDS011;74506;51.150;4.470;2024-01-30T01:48:12;9.20;;;4.45;;
56381;SDS011;74506;51.150;4.470;2024-01-30T01:50:38;9.15;;;4.63;;
56381;SDS011;74506;51.150;4.470;2024-01-30T01:53:05;7.75;;;4.90;;
56381;SDS011;74506;51.150;4.470;2024-01-30T01:55:31;8.68;;;5.25;;
56381;SDS011;74506;51.150;4.470;2024-01-30T01:57:58;8.80;;;5.13;;
56381;SDS011;74506;51.150;4.470;2024-01-30T02:00:24;8.73;;;4.70;;
56381;SDS011;74506;51.150;4.470;2024-01-30T02:02:50;10.68;;;4.68;;
56381;SDS011;74506;51.150;4.470;2024-01-30T02:05:16;7.78;;;5.15;;
56381;SDS011;74506;51.150;4.470;2024-01-30T02:07:42;7.68;;;4.97;;
56381;SDS011;74506;51.150;4.470;2024-01-30T02:10:09;8.00;;;5.20;;
56381;SDS011;74506;51.150;4.470;2024-01-30T02:12:35;6.80;;;4.85;;
56381;SDS011;74506;51.150;4.470;2024-01-30T02:15:00;10.23;;;4.95;;
56381;SDS011;74506;51.150;4.470;2024-01-30T02:17:26;10.98;;;5.10;;
56381;SDS011;74506;51.150;4.470;2024-01-30T02:19:52;10.60;;;4.50;;
56381;SDS011;74506;51.150;4.470;2024-01-30T02:22:18;7.95;;;4.70;;
56381;SDS011;74506;51.150;4.470;2024-01-30T02:24:44;8.07;;;5.25;;
56381;SDS011;74506;51.150;4.470;2024-01-30T02:27:10;9.30;;;5.47;;
56381;SDS011;74506;51.150;4.470;2024-01-30T02:29:35;6.80;;;4.30;;
56381;SDS011;74506;51.150;4.470;2024-01-30T02:32:01;9.40;;;4.72;;
56381;SDS011;74506;51.150;4.470;2024-01-30T02:34:27;8.07;;;5.07;;
56381;SDS011;74506;51.150;4.470;2024-01-30T02:36:53;8.77;;;5.03;;
56381;SDS011;74506;51.150;4.470;2024-01-30T02:39:18;7.03;;;4.53;;
56381;SDS011;74506;51.150;4.470;2024-01-30T02:41:45;8.45;;;5.13;;
56381;SDS011;74506;51.150;4.470;2024-01-30T02:44:10;7.90;;;4.57;;
56381;SDS011;74506;51.150;4.470;2024-01-30T02:46:36;8.15;;;4.72;;
56381;SDS011;74506;51.150;4.470;2024-01-30T02:49:02;8.73;;;4.80;;
56381;SDS011;74506;51.150;4.470;2024-01-30T02:51:27;9.50;;;4.63;;
56381;SDS011;74506;51.150;4.470;2024-01-30T02:53:53;10.18;;;5.18;;
56381;SDS011;74506;51.150;4.470;2024-01-30T02:56:19;8.77;;;5.20;;
56381;SDS011;74506;51.150;4.470;2024-01-30T02:58:44;7.07;;;4.45;;
56381;SDS011;74506;51.150;4.470;2024-01-30T03:01:10;9.23;;;4.88;;
56381;SDS011;74506;51.150;4.470;2024-01-30T03:03:35;8.00;;;4.72;;
56381;SDS011;74506;51.150;4.470;2024-01-30T03:06:01;9.27;;;4.97;;
56381;SDS011;74506;51.150;4.470;2024-01-30T03:08:27;7.80;;;4.82;;
56381;SDS011;74506;51.150;4.470;2024-01-30T03:10:53;10.43;;;5.05;;
56381;SDS011;74506;51.150;4.470;2024-01-30T03:13:19;9.25;;;4.30;;
56381;SDS011;74506;51.150;4.470;2024-01-30T03:15:44;6.80;;;5.05;;
56381;SDS011;74506;51.150;4.470;2024-01-30T03:18:10;7.07;;;4.40;;
56381;SDS011;74506;51.150;4.470;2024-01-30T03:20:36;6.43;;;4.05;;
56381;SDS011;74506;51.150;4.470;2024-01-30T03:23:01;6.82;;;4.75;;
56381;SDS011;74506;51.150;4.470;2024-01-30T03:25:27;10.98;;;4.43;;
56381;SDS011;74506;51.150;4.470;2024-01-30T03:27:53;10.82;;;4.47;;
56381;SDS011;74506;51.150;4.470;2024-01-30T03:30:18;8.07;;;5.00;;
56381;SDS011;74506;51.150;4.470;2024-01-30T03:32:44;11.43;;;5.03;;
56381;SDS011;74506;51.150;4.470;2024-01-30T03:35:10;8.55;;;4.65;;
56381;SDS011;74506;51.150;4.470;2024-01-30T03:37:35;10.45;;;4.82;;
56381;SDS011;74506;51.150;4.470;2024-01-30T03:40:02;8.50;;;4.53;;
56381;SDS011;74506;51.150;4.470;2024-01-30T03:42:28;8.23;;;5.00;;
56381;SDS011;74506;51.150;4.470;2024-01-30T03:44:54;9.32;;;5.20;;
56381;SDS011;74506;51.150;4.470;2024-01-30T03:47:20;7.10;;;4.65;;
56381;SDS011;74506;51.150;4.470;2024-01-30T03:49:46;9.30;;;5.20;;
56381;SDS011;74506;51.150;4.470;2024-01-30T03:52:12;8.95;;;5.18;;
56381;SDS011;74506;51.150;4.470;2024-01-30T03:54:37;9.00;;;4.88;;
56381;SDS011;74506;51.150;4.470;2024-01-30T03:57:03;8.70;;;4.75;;
56381;SDS011;74506;51.150;4.470;2024-01-30T03:59:29;9.75;;;4.72;;
56381;SDS011;74506;51.150;4.470;2024-01-30T04:01:54;10.13;;;5.00;;
56381;SDS011;74506;51.150;4.470;2024-01-30T04:04:20;8.52;;;5.13;;
56381;SDS011;74506;51.150;4.470;2024-01-30T04:06:46;9.45;;;4.85;;
56381;SDS011;74506;51.150;4.470;2024-01-30T04:09:12;8.95;;;5.28;;
56381;SDS011;74506;51.150;4.470;2024-01-30T04:11:41;9.35;;;5.50;;
56381;SDS011;74506;51.150;4.470;2024-01-30T04:14:08;8.68;;;4.65;;
56381;SDS011;74506;51.150;4.470;2024-01-30T04:16:34;9.02;;;5.45;;
56381;SDS011;74506;51.150;4.470;2024-01-30T04:18:59;11.48;;;4.97;;
56381;SDS011;74506;51.150;4.470;2024-01-30T04:21:25;12.10;;;5.00;;
56381;SDS011;74506;51.150;4.470;2024-01-30T04:23:51;9.55;;;4.45;;
56381;SDS011;74506;51.150;4.470;2024-01-30T04:26:17;8.93;;;5.18;;
56381;SDS011;74506;51.150;4.470;2024-01-30T04:28:45;10.45;;;4.63;;
56381;SDS011;74506;51.150;4.470;2024-01-30T04:31:11;7.28;;;4.38;;
56381;SDS011;74506;51.150;4.470;2024-01-30T04:33:37;8.85;;;5.35;;
56381;SDS011;74506;51.150;4.470;2024-01-30T04:36:03;8.50;;;4.93;;
56381;SDS011;74506;51.150;4.470;2024-01-30T04:38:29;8.32;;;4.70;;
56381;SDS011;74506;51.150;4.470;2024-01-30T04:40:54;9.23;;;4.60;;
56381;SDS011;74506;51.150;4.470;2024-01-30T04:43:20;8.18;;;5.03;;
56381;SDS011;74506;51.150;4.470;2024-01-30T04:45:46;11.85;;;4.72;;
56381;SDS011;74506;51.150;4.470;2024-01-30T04:48:12;9.57;;;4.70;;
56381;SDS011;74506;51.150;4.470;2024-01-30T04:50:38;10.90;;;4.85;;
56381;SDS011;74506;51.150;4.470;2024-01-30T04:53:04;9.82;;;5.45;;
56381;SDS011;74506;51.150;4.470;2024-01-30T04:55:30;5.85;;;4.45;;
56381;SDS011;74506;51.150;4.470;2024-01-30T04:57:55;9.70;;;4.65;;
56381;SDS011;74506;51.150;4.470;2024-01-30T05:00:21;10.57;;;4.82;;
56381;SDS011;74506;51.150;4.470;2024-01-30T05:02:47;8.35;;;4.40;;
56381;SDS011;74506;51.150;4.470;2024-01-30T05:05:12;13.95;;;5.43;;
56381;SDS011;74506;51.150;4.470;2024-01-30T05:07:38;8.30;;;4.63;;
56381;SDS011;74506;51.150;4.470;2024-01-30T05:10:04;10.48;;;4.78;;
56381;SDS011;74506;51.150;4.470;2024-01-30T05:12:30;10.52;;;4.63;;
56381;SDS011;74506;51.150;4.470;2024-01-30T05:14:56;8.02;;;4.35;;
56381;SDS011;74506;51.150;4.470;2024-01-30T05:17:21;8.80;;;5.10;;
56381;SDS011;74506;51.150;4.470;2024-01-30T05:19:47;9.20;;;4.32;;
56381;SDS011;74506;51.150;4.470;2024-01-30T05:22:12;8.70;;;4.90;;
56381;SDS011;74506;51.150;4.470;2024-01-30T05:24:43;12.85;;;5.03;;
56381;SDS011;74506;51.150;4.470;2024-01-30T05:27:08;10.13;;;5.57;;
56381;SDS011;74506;51.150;4.470;2024-01-30T05:29:34;10.45;;;5.00;;
56381;SDS011;74506;51.150;4.470;2024-01-30T05:32:00;8.75;;;5.28;;
56381;SDS011;74506;51.150;4.470;2024-01-30T05:34:25;8.35;;;4.70;;
56381;SDS011;74506;51.150;4.470;2024-01-30T05:36:51;8.00;;;5.18;;
56381;SDS011;74506;51.150;4.470;2024-01-30T05:39:17;10.65;;;4.75;;
56381;SDS011;74506;51.150;4.470;2024-01-30T05:41:42;12.65;;;5.53;;
56381;SDS011;74506;51.150;4.470;2024-01-30T05:44:08;11.60;;;5.47;;
56381;SDS011;74506;51.150;4.470;2024-01-30T05:46:35;13.38;;;5.82;;
56381;SDS011;74506;51.150;4.470;2024-01-30T05:49:00;10.30;;;4.70;;
56381;SDS011;74506;51.150;4.470;2024-01-30T05:51:26;8.95;;;4.78;;
56381;SDS011;74506;51.150;4.470;2024-01-30T05:53:53;13.10;;;5.32;;
56381;SDS011;74506;51.150;4.470;2024-01-30T05:56:19;10.43;;;5.60;;
56381;SDS011;74506;51.150;4.470;2024-01-30T05:58:45;13.82;;;5.00;;
56381;SDS011;74506;51.150;4.470;2024-01-30T06:01:10;9.77;;;5.25;;
56381;SDS011;74506;51.150;4.470;2024-01-30T06:03:36;10.68;;;5.68;;
56381;SDS011;74506;51.150;4.470;2024-01-30T06:06:02;11.82;;;5.60;;
56381;SDS011;74506;51.150;4.470;2024-01-30T06:08:28;11.32;;;5.78;;
56381;SDS011;74506;51.150;4.470;2024-01-30T06:10:53;11.57;;;5.68;;
56381;SDS011;74506;51.150;4.470;2024-01-30T06:13:19;12.00;;;5.10;;
56381;SDS011;74506;51.150;4.470;2024-01-30T06:15:45;10.27;;;5.90;;
56381;SDS011;74506;51.150;4.470;2024-01-30T06:18:10;10.20;;;5.20;;
56381;SDS011;74506;51.150;4.470;2024-01-30T06:20:36;11.57;;;5.38;;
56381;SDS011;74506;51.150;4.470;2024-01-30T06:23:02;12.25;;;5.38;;
56381;SDS011;74506;51.150;4.470;2024-01-30T06:25:27;9.75;;;5.22;;
56381;SDS011;74506;51.150;4.470;2024-01-30T06:27:53;9.40;;;5.28;;
56381;SDS011;74506;51.150;4.470;2024-01-30T06:30:19;10.85;;;5.45;;
56381;SDS011;74506;51.150;4.470;2024-01-30T06:32:44;11.43;;;5.63;;
56381;SDS011;74506;51.150;4.470;2024-01-30T06:35:10;11.32;;;6.15;;
56381;SDS011;74506;51.150;4.470;2024-01-30T06:37:36;11.13;;;5.50;;
56381;SDS011;74506;51.150;4.470;2024-01-30T06:40:02;10.40;;;5.47;;
56381;SDS011;74506;51.150;4.470;2024-01-30T06:42:30;10.60;;;5.35;;
56381;SDS011;74506;51.150;4.470;2024-01-30T06:44:55;11.50;;;5.50;;
56381;SDS011;74506;51.150;4.470;2024-01-30T06:47:20;13.40;;;5.60;;
56381;SDS011;74506;51.150;4.470;2024-01-30T06:49:46;11.30;;;5.22;;
56381;SDS011;74506;51.150;4.470;2024-01-30T06:52:11;14.68;;;6.13;;
56381;SDS011;74506;51.150;4.470;2024-01-30T06:54:36;16.10;;;5.78;;
56381;SDS011;74506;51.150;4.470;2024-01-30T06:57:02;11.07;;;5.47;;
56381;SDS011;74506;51.150;4.470;2024-01-30T06:59:28;11.55;;;5.20;;
56381;SDS011;74506;51.150;4.470;2024-01-30T07:01:53;11.20;;;4.30;;
56381;SDS011;74506;51.150;4.470;2024-01-30T07:04:19;10.95;;;5.88;;
56381;SDS011;74506;51.150;4.470;2024-01-30T07:06:45;12.32;;;5.35;;
56381;SDS011;74506;51.150;4.470;2024-01-30T07:09:10;12.07;;;5.72;;
56381;SDS011;74506;51.150;4.470;2024-01-30T07:11:36;12.20;;;4.78;;
56381;SDS011;74506;51.150;4.470;2024-01-30T07:14:01;10.75;;;5.03;;
56381;SDS011;74506;51.150;4.470;2024-01-30T07:16:29;9.43;;;5.05;;
56381;SDS011;74506;51.150;4.470;2024-01-30T07:18:55;11.52;;;4.57;;
56381;SDS011;74506;51.150;4.470;2024-01-30T07:21:24;10.80;;;5.00;;
56381;SDS011;74506;51.150;4.470;2024-01-30T07:23:56;9.82;;;5.13;;
56381;SDS011;74506;51.150;4.470;2024-01-30T07:26:21;10.52;;;5.25;;
56381;SDS011;74506;51.150;4.470;2024-01-30T07:28:47;8.88;;;5.05;;
56381;SDS011;74506;51.150;4.470;2024-01-30T07:31:12;13.13;;;5.53;;
56381;SDS011;74506;51.150;4.470;2024-01-30T07:33:38;11.82;;;5.32;;
56381;SDS011;74506;51.150;4.470;2024-01-30T07:36:03;10.23;;;5.65;;
56381;SDS011;74506;51.150;4.470;2024-01-30T07:38:31;10.35;;;5.65;;
56381;SDS011;74506;51.150;4.470;2024-01-30T07:40:57;13.27;;;5.63;;
56381;SDS011;74506;51.150;4.470;2024-01-30T07:43:22;10.00;;;5.28;;
56381;SDS011;74506;51.150;4.470;2024-01-30T07:45:47;12.38;;;5.80;;
56381;SDS011;74506;51.150;4.470;2024-01-30T07:48:13;9.75;;;4.93;;
56381;SDS011;74506;51.150;4.470;2024-01-30T07:50:39;13.27;;;5.32;;
56381;SDS011;74506;51.150;4.470;2024-01-30T07:53:07;11.25;;;5.93;;
56381;SDS011;74506;51.150;4.470;2024-01-30T07:55:33;10.77;;;6.00;;
56381;SDS011;74506;51.150;4.470;2024-01-30T07:58:00;8.65;;;5.38;;
56381;SDS011;74506;51.150;4.470;2024-01-30T08:00:25;12.77;;;5.95;;
56381;SDS011;74506;51.150;4.470;2024-01-30T08:02:51;12.05;;;5.80;;
56381;SDS011;74506;51.150;4.470;2024-01-30T08:05:19;12.80;;;5.65;;
56381;SDS011;74506;51.150;4.470;2024-01-30T08:07:48;11.07;;;5.40;;
56381;SDS011;74506;51.150;4.470;2024-01-30T08:10:13;12.05;;;6.10;;
56381;SDS011;74506;51.150;4.470;2024-01-30T08:12:39;10.07;;;4.97;;
56381;SDS011;74506;51.150;4.470;2024-01-30T08:15:05;6.95;;;3.72;;
56381;SDS011;74506;51.150;4.470;2024-01-30T08:17:31;10.63;;;5.22;;
56381;SDS011;74506;51.150;4.470;2024-01-30T08:19:57;13.40;;;5.78;;
56381;SDS011;74506;51.150;4.470;2024-01-30T08:22:23;10.63;;;6.28;;
56381;SDS011;74506;51.150;4.470;2024-01-30T08:24:49;12.10;;;5.82;;
56381;SDS011;74506;51.150;4.470;2024-01-30T08:27:14;11.68;;;5.93;;
56381;SDS011;74506;51.150;4.470;2024-01-30T08:29:40;12.65;;;6.25;;
56381;SDS011;74506;51.150;4.470;2024-01-30T08:32:06;12.55;;;5.60;;
56381;SDS011;74506;51.150;4.470;2024-01-30T08:34:31;14.10;;;5.82;;
56381;SDS011;74506;51.150;4.470;2024-01-30T08:36:57;10.98;;;5.93;;
56381;SDS011;74506;51.150;4.470;2024-01-30T08:39:23;12.45;;;5.95;;
56381;SDS011;74506;51.150;4.470;2024-01-30T08:41:49;11.35;;;4.75;;
56381;SDS011;74506;51.150;4.470;2024-01-30T08:44:14;10.68;;;5.57;;
56381;SDS011;74506;51.150;4.470;2024-01-30T08:46:40;16.25;;;5.35;;
56381;SDS011;74506;51.150;4.470;2024-01-30T08:49:06;14.05;;;5.82;;
56381;SDS011;74506;51.150;4.470;2024-01-30T08:51:31;11.98;;;6.55;;
56381;SDS011;74506;51.150;4.470;2024-01-30T08:53:57;10.68;;;3.83;;
56381;SDS011;74506;51.150;4.470;2024-01-30T08:56:23;12.65;;;6.55;;
56381;SDS011;74506;51.150;4.470;2024-01-30T08:58:48;7.95;;;5.22;;
56381;SDS011;74506;51.150;4.470;2024-01-30T09:01:14;10.75;;;5.78;;
56381;SDS011;74506;51.150;4.470;2024-01-30T09:03:40;9.60;;;5.68;;
56381;SDS011;74506;51.150;4.470;2024-01-30T09:06:09;8.65;;;5.82;;
56381;SDS011;74506;51.150;4.470;2024-01-30T09:08:35;9.45;;;4.47;;
56381;SDS011;74506;51.150;4.470;2024-01-30T09:11:02;9.32;;;5.65;;
56381;SDS011;74506;51.150;4.470;2024-01-30T09:13:27;11.55;;;5.63;;
56381;SDS011;74506;51.150;4.470;2024-01-30T09:15:53;8.38;;;5.32;;
56381;SDS011;74506;51.150;4.470;2024-01-30T09:18:20;9.20;;;5.93;;
56381;SDS011;74506;51.150;4.470;2024-01-30T09:20:46;13.50;;;5.78;;
56381;SDS011;74506;51.150;4.470;2024-01-30T09:23:13;9.70;;;5.47;;
56381;SDS011;74506;51.150;4.470;2024-01-30T09:25:38;11.75;;;5.80;;
56381;SDS011;74506;51.150;4.470;2024-01-30T09:28:04;8.32;;;5.65;;
56381;SDS011;74506;51.150;4.470;2024-01-30T09:30:30;10.77;;;4.28;;
56381;SDS011;74506;51.150;4.470;2024-01-30T09:32:56;7.45;;;4.50;;
56381;SDS011;74506;51.150;4.470;2024-01-30T09:35:21;11.18;;;5.63;;
56381;SDS011;74506;51.150;4.470;2024-01-30T09:37:47;11.88;;;5.53;;
56381;SDS011;74506;51.150;4.470;2024-01-30T09:40:13;11.52;;;6.15;;
56381;SDS011;74506;51.150;4.470;2024-01-30T09:42:39;12.57;;;5.93;;
56381;SDS011;74506;51.150;4.470;2024-01-30T09:45:05;10.43;;;6.10;;
56381;SDS011;74506;51.150;4.470;2024-01-30T09:47:41;9.75;;;5.63;;
56381;SDS011;74506;51.150;4.470;2024-01-30T09:50:12;11.60;;;6.00;;
56381;SDS011;74506;51.150;4.470;2024-01-30T09:52:38;11.40;;;5.75;;
56381;SDS011;74506;51.150;4.470;2024-01-30T09:55:05;14.13;;;7.45;;
56381;SDS011;74506;51.150;4.470;2024-01-30T09:57:31;11.63;;;7.07;;
56381;SDS011;74506;51.150;4.470;2024-01-30T09:59:56;14.23;;;6.63;;
56381;SDS011;74506;51.150;4.470;2024-01-30T10:02:22;9.15;;;5.63;;
56381;SDS011;74506;51.150;4.470;2024-01-30T10:04:48;13.38;;;6.30;;
56381;SDS011;74506;51.150;4.470;2024-01-30T10:07:15;9.90;;;6.97;;
56381;SDS011;74506;51.150;4.470;2024-01-30T10:09:41;17.80;;;7.75;;
56381;SDS011;74506;51.150;4.470;2024-01-30T10:12:07;12.15;;;5.93;;
56381;SDS011;74506;51.150;4.470;2024-01-30T10:14:33;13.93;;;7.30;;
56381;SDS011;74506;51.150;4.470;2024-01-30T10:16:58;12.93;;;7.63;;
56381;SDS011;74506;51.150;4.470;2024-01-30T10:19:24;16.98;;;7.32;;
56381;SDS011;74506;51.150;4.470;2024-01-30T10:21:50;16.40;;;7.57;;
56381;SDS011;74506;51.150;4.470;2024-01-30T10:24:16;14.13;;;6.50;;
56381;SDS011;74506;51.150;4.470;2024-01-30T10:26:45;15.27;;;6.88;;
56381;SDS011;74506;51.150;4.470;2024-01-30T10:29:12;13.95;;;7.00;;
56381;SDS011;74506;51.150;4.470;2024-01-30T10:31:38;11.35;;;7.05;;
56381;SDS011;74506;51.150;4.470;2024-01-30T10:34:03;13.00;;;7.05;;
56381;SDS011;74506;51.150;4.470;2024-01-30T10:36:29;14.30;;;5.00;;
56381;SDS011;74506;51.150;4.470;2024-01-30T10:38:55;9.65;;;5.75;;
56381;SDS011;74506;51.150;4.470;2024-01-30T10:41:25;8.55;;;4.40;;
56381;SDS011;74506;51.150;4.470;2024-01-30T10:43:55;8.25;;;4.40;;
56381;SDS011;74506;51.150;4.470;2024-01-30T10:46:22;11.57;;;4.63;;
56381;SDS011;74506;51.150;4.470;2024-01-30T10:48:58;12.82;;;3.95;;
56381;SDS011;74506;51.150;4.470;2024-01-30T10:51:27;8.82;;;3.78;;
56381;SDS011;74506;51.150;4.470;2024-01-30T10:53:53;10.02;;;4.82;;
56381;SDS011;74506;51.150;4.470;2024-01-30T10:56:21;10.43;;;4.10;;
56381;SDS011;74506;51.150;4.470;2024-01-30T10:58:47;12.13;;;3.88;;
56381;SDS011;74506;51.150;4.470;2024-01-30T11:01:13;5.32;;;2.40;;
56381;SDS011;74506;51.150;4.470;2024-01-30T11:03:39;3.90;;;1.40;;
56381;SDS011;74506;51.150;4.470;2024-01-30T11:06:05;3.42;;;1.30;;
56381;SDS011;74506;51.150;4.470;2024-01-30T11:08:36;4.68;;;0.90;;
56381;SDS011;74506;51.150;4.470;2024-01-30T11:11:01;3.22;;;0.85;;
56381;SDS011;74506;51.150;4.470;2024-01-30T11:13:31;2.05;;;0.47;;
56381;SDS011;74506;51.150;4.470;2024-01-30T11:16:03;6.25;;;1.02;;
56381;SDS011;74506;51.150;4.470;2024-01-30T11:18:30;2.10;;;0.70;;
56381;SDS011;74506;51.150;4.470;2024-01-30T11:20:56;3.75;;;0.68;;
56381;SDS011;74506;51.150;4.470;2024-01-30T11:23:23;2.50;;;0.47;;
56381;SDS011;74506;51.150;4.470;2024-01-30T11:25:49;3.63;;;0.50;;
56381;SDS011;74506;51.150;4.470;2024-01-30T11:28:17;3.05;;;0.57;;
56381;SDS011;74506;51.150;4.470;2024-01-30T11:30:44;2.38;;;0.63;;
56381;SDS011;74506;51.150;4.470;2024-01-30T11:33:13;1.77;;;0.50;;
56381;SDS011;74506;51.150;4.470;2024-01-30T11:35:43;2.40;;;0.40;;
56381;SDS011;74506;51.150;4.470;2024-01-30T11:38:09;1.73;;;0.20;;
56381;SDS011;74506;51.150;4.470;2024-01-30T11:40:36;1.48;;;0.45;;
56381;SDS011;74506;51.150;4.470;2024-01-30T11:43:03;2.28;;;0.30;;
56381;SDS011;74506;51.150;4.470;2024-01-30T11:45:30;3.67;;;0.40;;
56381;SDS011;74506;51.150;4.470;2024-01-30T11:47:55;3.40;;;0.38;;
56381;SDS011;74506;51.150;4.470;2024-01-30T11:50:21;1.05;;;0.30;;
56381;SDS011;74506;51.150;4.470;2024-01-30T11:52:47;1.60;;;0.15;;
56381;SDS011;74506;51.150;4.470;2024-01-30T11:55:13;3.85;;;0.40;;
56381;SDS011;74506;51.150;4.470;2024-01-30T11:57:39;2.78;;;0.60;;
56381;SDS011;74506;51.150;4.470;2024-01-30T12:00:05;3.70;;;0.65;;
56381;SDS011;74506;51.150;4.470;2024-01-30T12:02:36;1.02;;;0.32;;
56381;SDS011;74506;51.150;4.470;2024-01-30T12:05:05;2.75;;;0.77;;
56381;SDS011;74506;51.150;4.470;2024-01-30T12:07:31;1.77;;;0.50;;
56381;SDS011;74506;51.150;4.470;2024-01-30T12:09:57;2.55;;;0.20;;
56381;SDS011;74506;51.150;4.470;2024-01-30T12:12:23;2.60;;;0.45;;
56381;SDS011;74506;51.150;4.470;2024-01-30T12:14:49;1.73;;;0.30;;
56381;SDS011;74506;51.150;4.470;2024-01-30T12:17:31;4.03;;;0.57;;
56381;SDS011;74506;51.150;4.470;2024-01-30T12:20:03;1.40;;;0.20;;
56381;SDS011;74506;51.150;4.470;2024-01-30T12:22:29;0.57;;;0.22;;
56381;SDS011;74506;51.150;4.470;2024-01-30T12:24:55;2.80;;;0.30;;
56381;SDS011;74506;51.150;4.470;2024-01-30T12:27:21;1.55;;;0.40;;
56381;SDS011;74506;51.150;4.470;2024-01-30T12:29:47;2.95;;;0.50;;
56381;SDS011;74506;51.150;4.470;2024-01-30T12:32:15;5.68;;;0.47;;
56381;SDS011;74506;51.150;4.470;2024-01-30T12:34:42;3.53;;;0.70;;
56381;SDS011;74506;51.150;4.470;2024-01-30T12:37:07;2.55;;;0.47;;
56381;SDS011;74506;51.150;4.470;2024-01-30T12:39:35;0.98;;;0.50;;
56381;SDS011;74506;51.150;4.470;2024-01-30T12:42:00;4.63;;;0.70;;
56381;SDS011;74506;51.150;4.470;2024-01-30T12:44:27;2.05;;;0.57;;
56381;SDS011;74506;51.150;4.470;2024-01-30T12:46:52;4.10;;;0.50;;
56381;SDS011;74506;51.150;4.470;2024-01-30T12:49:18;9.63;;;1.00;;
56381;SDS011;74506;51.150;4.470;2024-01-30T12:51:43;0.77;;;0.38;;
56381;SDS011;74506;51.150;4.470;2024-01-30T12:54:09;1.38;;;0.40;;
56381;SDS011;74506;51.150;4.470;2024-01-30T12:56:35;3.63;;;0.45;;
56381;SDS011;74506;51.150;4.470;2024-01-30T12:59:00;1.80;;;0.47;;
56381;SDS011;74506;51.150;4.470;2024-01-30T13:01:26;2.58;;;0.60;;
56381;SDS011;74506;51.150;4.470;2024-01-30T13:03:52;4.03;;;0.40;;
56381;SDS011;74506;51.150;4.470;2024-01-30T13:06:17;3.72;;;0.50;;
56381;SDS011;74506;51.150;4.470;2024-01-30T13:08:43;2.22;;;0.47;;
56381;SDS011;74506;51.150;4.470;2024-01-30T13:11:09;2.55;;;0.75;;
56381;SDS011;74506;51.150;4.470;2024-01-30T13:13:34;3.22;;;0.90;;
56381;SDS011;74506;51.150;4.470;2024-01-30T13:16:00;7.97;;;1.00;;
56381;SDS011;74506;51.150;4.470;2024-01-30T13:18:26;3.08;;;0.55;;
56381;SDS011;74506;51.150;4.470;2024-01-30T13:20:52;3.15;;;0.55;;
56381;SDS011;74506;51.150;4.470;2024-01-30T13:23:17;2.53;;;0.52;;
56381;SDS011;74506;51.150;4.470;2024-01-30T13:25:43;3.17;;;1.23;;
56381;SDS011;74506;51.150;4.470;2024-01-30T13:28:09;3.25;;;0.73;;
56381;SDS011;74506;51.150;4.470;2024-01-30T13:30:35;4.25;;;0.80;;
56381;SDS011;74506;51.150;4.470;2024-01-30T13:33:00;2.90;;;0.85;;
56381;SDS011;74506;51.150;4.470;2024-01-30T13:35:26;4.57;;;1.13;;
56381;SDS011;74506;51.150;4.470;2024-01-30T13:37:52;3.70;;;1.10;;
56381;SDS011;74506;51.150;4.470;2024-01-30T13:40:17;6.45;;;1.15;;
56381;SDS011;74506;51.150;4.470;2024-01-30T13:42:43;5.97;;;0.88;;
56381;SDS011;74506;51.150;4.470;2024-01-30T13:45:09;3.17;;;0.65;;
56381;SDS011;74506;51.150;4.470;2024-01-30T13:47:37;4.05;;;0.82;;
56381;SDS011;74506;51.150;4.470;2024-01-30T13:50:03;3.03;;;0.85;;
56381;SDS011;74506;51.150;4.470;2024-01-30T13:52:29;4.97;;;0.90;;
56381;SDS011;74506;51.150;4.470;2024-01-30T13:54:55;3.55;;;1.25;;
56381;SDS011;74506;51.150;4.470;2024-01-30T13:57:20;4.43;;;1.00;;
56381;SDS011;74506;51.150;4.470;2024-01-30T13:59:46;4.88;;;0.80;;
56381;SDS011;74506;51.150;4.470;2024-01-30T14:02:12;1.90;;;0.63;;
56381;SDS011;74506;51.150;4.470;2024-01-30T14:04:37;2.65;;;0.80;;
56381;SDS011;74506;51.150;4.470;2024-01-30T14:07:04;4.07;;;0.70;;
56381;SDS011;74506;51.150;4.470;2024-01-30T14:09:29;0.65;;;0.32;;
56381;SDS011;74506;51.150;4.470;2024-01-30T14:11:55;5.25;;;0.73;;
56381;SDS011;74506;51.150;4.470;2024-01-30T14:14:21;3.75;;;1.00;;
56381;SDS011;74506;51.150;4.470;2024-01-30T14:16:46;4.22;;;0.70;;
56381;SDS011;74506;51.150;4.470;2024-01-30T14:19:13;1.10;;;0.43;;
56381;SDS011;74506;51.150;4.470;2024-01-30T14:21:39;2.67;;;0.60;;
56381;SDS011;74506;51.150;4.470;2024-01-30T14:24:05;2.60;;;0.80;;
56381;SDS011;74506;51.150;4.470;2024-01-30T14:26:31;8.70;;;1.00;;
56381;SDS011;74506;51.150;4.470;2024-01-30T14:28:56;4.80;;;0.70;;
56381;SDS011;74506;51.150;4.470;2024-01-30T14:31:22;2.55;;;0.70;;
56381;SDS011;74506;51.150;4.470;2024-01-30T14:33:49;2.15;;;0.50;;
56381;SDS011;74506;51.150;4.470;2024-01-30T14:36:16;4.75;;;0.77;;